Time;durP1;ratioP1;P1;durP2;ratioP2;P2;SDS_P1;SDS_P2;PMS_P1;PMS_P2;Temp;Humidity;BMP_temperature;BMP_pressure;BME280_temperature;BME280_humidity;BME280_pressure;Samples;Min_cycle;Max_cycle;Signal;HPM_P1;HPM_P2
2023/03/14 00:02:16;;;;;;;1.40;0.50;;;12.00;99.90;;;;;;5038578;28;20025;-67
2023/03/14 00:04:42;;;;;;;1.88;0.68;;;12.10;99.90;;;;;;5038212;28;20026;-67
2023/03/14 00:07:09;;;;;;;2.42;0.60;;;12.00;99.90;;;;;;5038435;28;20167;-67
2023/03/14 00:09:35;;;;;;;1.15;0.77;;;12.10;99.90;;;;;;5039418;28;20028;-67
2023/03/14 00:12:02;;;;;;;4.68;0.93;;;12.10;99.90;;;;;;5038439;28;20026;-67
2023/03/14 00:14:29;;;;;;;0.93;0.73;;;12.10;99.90;;;;;;5038295;28;20030;-68
2023/03/14 00:16:54;;;;;;;1.13;0.50;;;12.10;99.90;;;;;;5038386;28;20049;-68
2023/03/14 00:19:20;;;;;;;2.75;0.60;;;12.10;99.90;;;;;;5038323;28;20052;-68
2023/03/14 00:21:46;;;;;;;1.02;0.70;;;12.00;99.90;;;;;;5038622;28;20021;-68
2023/03/14 00:24:12;;;;;;;1.50;0.75;;;12.00;99.90;;;;;;5038948;28;20021;-68
2023/03/14 00:26:37;;;;;;;0.90;0.55;;;12.00;99.90;;;;;;5038120;28;20064;-68
2023/03/14 00:29:03;;;;;;;4.28;0.63;;;12.10;99.90;;;;;;5038130;28;20017;-68
2023/03/14 00:31:28;;;;;;;1.13;0.50;;;12.10;99.90;;;;;;5038230;28;20057;-68
2023/03/14 00:33:54;;;;;;;5.68;0.90;;;12.10;99.90;;;;;;5037985;28;20029;-68
2023/03/14 00:36:20;;;;;;;1.48;0.77;;;12.00;99.90;;;;;;5038370;28;20025;-68
2023/03/14 00:38:48;;;;;;;3.00;0.80;;;11.90;99.90;;;;;;5038472;28;20052;-68
2023/03/14 00:41:20;;;;;;;2.28;0.90;;;12.00;99.90;;;;;;5038105;28;20060;-68
2023/03/14 00:43:46;;;;;;;1.25;0.85;;;12.00;99.90;;;;;;5037720;28;20025;-68
2023/03/14 00:46:12;;;;;;;3.47;1.08;;;12.00;99.90;;;;;;5037670;28;20028;-67
2023/03/14 00:48:38;;;;;;;3.50;0.90;;;11.90;99.90;;;;;;5037688;28;20168;-67
2023/03/14 00:51:06;;;;;;;2.35;0.88;;;11.80;99.90;;;;;;5037926;28;20032;-67
2023/03/14 00:53:35;;;;;;;3.50;0.93;;;11.90;99.90;;;;;;5037576;28;20140;-67
2023/03/14 00:56:07;;;;;;;1.95;1.05;;;11.90;99.90;;;;;;5037471;28;20083;-67
2023/03/14 00:58:32;;;;;;;9.48;1.67;;;11.90;99.90;;;;;;5037623;28;20048;-67
2023/03/14 01:00:58;;;;;;;1.85;1.00;;;11.90;99.90;;;;;;5037593;28;20029;-67
2023/03/14 01:03:24;;;;;;;2.85;1.20;;;11.90;99.90;;;;;;5037362;28;20093;-66
2023/03/14 01:05:50;;;;;;;5.55;1.40;;;11.90;99.90;;;;;;5038113;28;20034;-66
2023/03/14 01:08:16;;;;;;;4.45;1.27;;;11.90;99.90;;;;;;5038105;28;20108;-66
2023/03/14 01:10:42;;;;;;;3.67;1.10;;;11.90;99.90;;;;;;5037266;28;20052;-66
2023/03/14 01:13:08;;;;;;;4.32;1.10;;;11.90;99.90;;;;;;5038199;28;20021;-66
2023/03/14 01:15:35;;;;;;;8.45;1.23;;;11.90;99.90;;;;;;5037506;28;20022;-66
2023/03/14 01:18:01;;;;;;;4.03;1.40;;;11.90;99.90;;;;;;5037708;28;20025;-66
2023/03/14 01:20:27;;;;;;;3.40;1.08;;;11.90;99.90;;;;;;5037377;28;20021;-66
2023/03/14 01:22:52;;;;;;;4.00;1.00;;;11.90;99.90;;;;;;5037164;28;20025;-66
2023/03/14 01:25:18;;;;;;;5.22;0.75;;;11.90;99.90;;;;;;5037734;28;20022;-66
2023/03/14 01:27:44;;;;;;;2.47;0.98;;;11.90;99.90;;;;;;5037815;28;20014;-66
2023/03/14 01:30:10;;;;;;;5.15;1.08;;;11.90;99.90;;;;;;5038012;28;20025;-66
2023/03/14 01:32:36;;;;;;;4.85;1.23;;;12.00;99.90;;;;;;5036563;28;20030;-66
2023/03/14 01:35:02;;;;;;;7.38;1.20;;;11.90;99.90;;;;;;5036866;28;20063;-66
2023/03/14 01:37:28;;;;;;;4.55;0.90;;;11.90;99.90;;;;;;5037225;28;20064;-66
2023/03/14 01:39:53;;;;;;;6.53;1.40;;;11.80;99.90;;;;;;5038139;28;20024;-66
2023/03/14 01:42:19;;;;;;;5.55;1.10;;;11.70;99.90;;;;;;5036853;28;20030;-66
2023/03/14 01:44:54;;;;;;;3.08;1.02;;;11.70;99.90;;;;;;5036524;28;20101;-66
2023/03/14 01:47:21;;;;;;;2.55;0.95;;;11.70;99.90;;;;;;5037811;28;20076;-66
2023/03/14 01:49:50;;;;;;;3.35;0.90;;;11.60;99.90;;;;;;5036365;28;20117;-67
2023/03/14 01:52:24;;;;;;;8.02;1.30;;;11.60;99.90;;;;;;5037428;28;20021;-67
2023/03/14 01:54:57;;;;;;;1.10;0.95;;;11.50;99.90;;;;;;5036531;28;20036;-67
2023/03/14 01:57:26;;;;;;;3.88;1.27;;;11.50;99.90;;;;;;5037423;28;20029;-67
2023/03/14 01:59:56;;;;;;;5.82;1.30;;;11.50;99.90;;;;;;5036450;28;20026;-67
2023/03/14 02:02:23;;;;;;;4.70;1.30;;;11.40;99.90;;;;;;5037127;28;20025;-67
2023/03/14 02:04:50;;;;;;;2.80;1.15;;;11.40;99.90;;;;;;5036198;28;20037;-67
2023/03/14 02:07:22;;;;;;;5.53;1.67;;;11.40;99.90;;;;;;5036364;28;20025;-68
2023/03/14 02:09:49;;;;;;;9.00;1.55;;;11.40;99.90;;;;;;5036367;28;20022;-68
2023/03/14 02:12:17;;;;;;;6.78;1.60;;;11.30;99.90;;;;;;5036201;28;20021;-68
2023/03/14 02:14:47;;;;;;;6.03;1.38;;;11.30;99.90;;;;;;5036074;28;20060;-68
2023/03/14 02:17:15;;;;;;;3.25;1.00;;;11.30;99.90;;;;;;5036300;28;20029;-67
2023/03/14 02:19:59;;;;;;;1.58;0.90;;;11.30;99.90;;;;;;5036221;28;20030;-67
2023/03/14 02:22:25;;;;;;;5.15;0.98;;;11.40;99.90;;;;;;5036705;28;20040;-67
2023/03/14 02:25:11;;;;;;;2.95;1.00;;;11.40;99.90;;;;;;5035930;28;20037;-67
2023/03/14 02:27:37;;;;;;;9.98;1.38;;;11.30;99.90;;;;;;5055462;28;20056;-67
2023/03/14 02:30:27;;;;;;;6.00;1.38;;;11.40;99.90;;;;;;5057389;28;20057;-67
2023/03/14 02:32:58;;;;;;;3.78;0.98;;;11.40;99.90;;;;;;5056208;28;20059;-67
2023/03/14 02:35:28;;;;;;;8.80;1.40;;;11.40;99.90;;;;;;5055838;28;20017;-67
2023/03/14 02:38:13;;;;;;;6.78;1.20;;;11.40;99.90;;;;;;5057105;28;20032;-66
2023/03/14 02:40:38;;;;;;;8.50;1.10;;;11.40;99.90;;;;;;5055796;28;20078;-67
2023/03/14 02:43:04;;;;;;;5.15;1.02;;;11.40;99.90;;;;;;5056117;28;20025;-67
2023/03/14 02:45:46;;;;;;;10.43;1.50;;;11.40;99.90;;;;;;5055767;28;20028;-67
2023/03/14 02:48:16;;;;;;;7.25;1.48;;;11.40;99.90;;;;;;5056556;28;20021;-67
2023/03/14 02:50:43;;;;;;;5.65;1.30;;;11.40;99.90;;;;;;5057037;28;20049;-67
2023/03/14 02:53:08;;;;;;;2.70;0.90;;;11.40;99.90;;;;;;5056504;28;20021;-67
2023/03/14 02:55:34;;;;;;;2.22;0.75;;;11.40;99.90;;;;;;5055983;28;20025;-67
2023/03/14 02:58:00;;;;;;;6.47;1.27;;;11.40;99.90;;;;;;5055684;28;20025;-67
2023/03/14 03:00:25;;;;;;;2.17;1.05;;;11.30;99.90;;;;;;5057840;28;20036;-67
2023/03/14 03:02:51;;;;;;;2.60;0.90;;;11.30;99.90;;;;;;5059716;28;20051;-67
2023/03/14 03:05:17;;;;;;;4.53;0.82;;;11.30;99.90;;;;;;5060307;28;20029;-67
2023/03/14 03:07:42;;;;;;;4.10;0.90;;;11.30;99.90;;;;;;5059872;28;20025;-67
2023/03/14 03:10:08;;;;;;;2.22;0.98;;;11.30;99.90;;;;;;5059474;28;20078;-67
2023/03/14 03:12:34;;;;;;;4.90;0.98;;;11.30;99.90;;;;;;5059363;28;20028;-67
2023/03/14 03:14:59;;;;;;;2.95;1.00;;;11.30;99.90;;;;;;5059363;28;20033;-67
2023/03/14 03:17:25;;;;;;;2.53;0.90;;;11.30;99.90;;;;;;5060090;28;20039;-67
2023/03/14 03:19:51;;;;;;;7.85;0.95;;;11.40;99.90;;;;;;5059219;28;20025;-67
2023/03/14 03:22:16;;;;;;;5.32;1.20;;;11.40;99.90;;;;;;5060276;28;20031;-67
2023/03/14 03:24:42;;;;;;;2.90;1.25;;;11.40;99.90;;;;;;5058947;28;20021;-67
2023/03/14 03:27:07;;;;;;;2.35;1.38;;;11.40;99.90;;;;;;5059728;28;20063;-67
2023/03/14 03:29:33;;;;;;;2.63;0.90;;;11.30;99.90;;;;;;5059396;28;20043;-67
2023/03/14 03:31:58;;;;;;;3.97;0.95;;;11.30;99.90;;;;;;5059421;28;20013;-67
2023/03/14 03:34:24;;;;;;;4.22;1.10;;;11.30;99.90;;;;;;5059217;28;20040;-67
2023/03/14 03:36:49;;;;;;;2.67;0.73;;;11.30;99.90;;;;;;5059128;28;20032;-67
2023/03/14 03:39:15;;;;;;;5.30;0.90;;;11.20;99.90;;;;;;5058916;28;20025;-67
2023/03/14 03:41:40;;;;;;;6.18;1.30;;;11.20;99.90;;;;;;5059264;28;20054;-67
2023/03/14 03:44:06;;;;;;;3.45;1.02;;;11.30;99.90;;;;;;5060190;28;20033;-67
2023/03/14 03:46:32;;;;;;;3.78;0.70;;;11.40;99.90;;;;;;5058768;28;20017;-67
2023/03/14 03:48:59;;;;;;;8.45;1.20;;;11.30;99.90;;;;;;5059653;28;20032;-66
2023/03/14 03:51:25;;;;;;;7.35;1.25;;;11.30;99.90;;;;;;5059465;28;20107;-67
2023/03/14 03:53:51;;;;;;;6.22;1.45;;;11.20;99.90;;;;;;5059593;28;20036;-67
2023/03/14 03:56:17;;;;;;;3.65;1.35;;;11.20;99.90;;;;;;5059531;28;20025;-67
2023/03/14 03:58:43;;;;;;;1.83;0.90;;;11.30;99.90;;;;;;5059800;28;20025;-67
2023/03/14 04:01:10;;;;;;;4.57;0.88;;;11.30;99.90;;;;;;5058565;28;20121;-67
2023/03/14 04:03:38;;;;;;;2.40;0.90;;;11.30;99.90;;;;;;5059274;28;20070;-67
2023/03/14 04:06:07;;;;;;;1.85;1.10;;;11.30;99.90;;;;;;5058217;28;20116;-67
2023/03/14 04:08:32;;;;;;;9.32;2.00;;;11.30;99.90;;;;;;5058328;28;20020;-67
2023/03/14 04:11:00;;;;;;;4.47;0.90;;;11.30;99.90;;;;;;5058296;28;20021;-67
2023/03/14 04:13:26;;;;;;;5.88;0.85;;;11.30;99.90;;;;;;5058416;28;20048;-67
2023/03/14 04:15:52;;;;;;;2.83;1.00;;;11.30;99.90;;;;;;5058469;28;20028;-67
2023/03/14 04:18:18;;;;;;;3.00;1.20;;;11.30;99.90;;;;;;5059126;28;20029;-67
2023/03/14 04:20:44;;;;;;;6.35;1.30;;;11.30;99.90;;;;;;5058483;28;20029;-67
2023/03/14 04:23:09;;;;;;;6.73;1.00;;;11.20;99.90;;;;;;5058089;28;20154;-67
2023/03/14 04:25:35;;;;;;;4.22;1.10;;;11.20;99.90;;;;;;5058097;28;20025;-67
2023/03/14 04:28:01;;;;;;;5.20;0.98;;;11.20;99.90;;;;;;5058948;28;20021;-67
2023/03/14 04:30:26;;;;;;;3.80;1.15;;;11.30;99.90;;;;;;5058928;28;20052;-66
2023/03/14 04:32:52;;;;;;;5.63;1.02;;;11.30;99.90;;;;;;5057990;28;20017;-67
2023/03/14 04:35:18;;;;;;;5.13;1.30;;;11.20;99.90;;;;;;5058168;28;20124;-67
2023/03/14 04:37:43;;;;;;;4.10;0.68;;;11.20;99.90;;;;;;5057897;28;20060;-67
2023/03/14 04:40:10;;;;;;;3.50;1.00;;;11.10;99.90;;;;;;5058667;28;20029;-67
2023/03/14 04:42:36;;;;;;;3.83;0.90;;;11.10;99.90;;;;;;5058988;28;20040;-67
2023/03/14 04:45:02;;;;;;;2.22;0.80;;;11.20;99.90;;;;;;5058619;28;20025;-67
2023/03/14 04:47:28;;;;;;;1.80;0.98;;;11.20;99.90;;;;;;5058553;28;20028;-67
2023/03/14 04:49:53;;;;;;;3.60;0.70;;;11.20;99.90;;;;;;5058832;28;20031;-67
2023/03/14 04:52:19;;;;;;;2.88;0.95;;;11.20;99.90;;;;;;5057498;28;20111;-67
2023/03/14 04:54:45;;;;;;;4.18;1.23;;;11.30;99.90;;;;;;5058272;28;20068;-67
2023/03/14 04:57:10;;;;;;;1.05;0.43;;;11.30;99.90;;;;;;5057977;28;20021;-67
2023/03/14 04:59:36;;;;;;;3.85;0.68;;;11.30;99.90;;;;;;5057462;28;20047;-67
2023/03/14 05:02:01;;;;;;;4.30;0.75;;;11.30;99.90;;;;;;5058228;28;20025;-67
2023/03/14 05:04:27;;;;;;;1.85;0.85;;;11.40;99.90;;;;;;5057194;28;20025;-67
2023/03/14 05:06:52;;;;;;;2.65;1.05;;;11.30;99.90;;;;;;5058461;28;20025;-69
2023/03/14 05:09:18;;;;;;;2.00;0.80;;;11.30;99.90;;;;;;5057714;28;20099;-68
2023/03/14 05:11:43;;;;;;;2.97;0.75;;;11.40;99.90;;;;;;5057229;28;20017;-68
2023/03/14 05:14:09;;;;;;;2.00;0.60;;;11.40;99.90;;;;;;5058128;28;20063;-69
2023/03/14 05:16:34;;;;;;;4.90;0.80;;;11.40;99.90;;;;;;5057423;28;20017;-69
2023/03/14 05:19:01;;;;;;;4.18;0.95;;;11.40;99.90;;;;;;5058130;28;20032;-68
2023/03/14 05:21:27;;;;;;;5.18;0.90;;;11.30;99.90;;;;;;5057325;28;20033;-68
2023/03/14 05:23:52;;;;;;;1.27;0.77;;;11.30;99.90;;;;;;5056308;28;20028;-68
2023/03/14 05:26:18;;;;;;;2.08;0.50;;;11.30;99.90;;;;;;5056841;28;20029;-68
2023/03/14 05:28:43;;;;;;;6.00;0.73;;;11.20;99.90;;;;;;5056803;28;20017;-69
2023/03/14 05:31:09;;;;;;;0.95;0.50;;;11.30;99.90;;;;;;5056816;28;20029;-68
2023/03/14 05:33:34;;;;;;;2.95;0.77;;;11.20;99.90;;;;;;5056769;28;20028;-68
2023/03/14 05:36:00;;;;;;;3.22;0.60;;;11.30;99.90;;;;;;5057185;28;20071;-68
2023/03/14 05:38:25;;;;;;;1.30;0.50;;;11.30;99.90;;;;;;5056721;28;20107;-66
2023/03/14 05:40:51;;;;;;;1.92;0.40;;;11.20;99.90;;;;;;5057967;28;20096;-66
2023/03/14 05:43:17;;;;;;;1.27;0.50;;;11.30;99.90;;;;;;5057367;28;20060;-66
2023/03/14 05:45:43;;;;;;;3.83;0.60;;;11.30;99.90;;;;;;5056590;28;20020;-66
2023/03/14 05:48:08;;;;;;;1.38;0.47;;;11.40;99.90;;;;;;5056579;28;20093;-66
2023/03/14 05:50:34;;;;;;;1.52;1.23;;;11.30;99.90;;;;;;5056511;28;20048;-67
2023/03/14 05:52:59;;;;;;;2.20;0.60;;;11.30;99.90;;;;;;5056800;28;20021;-67
2023/03/14 05:55:25;;;;;;;2.55;0.50;;;11.30;99.90;;;;;;5056158;28;20025;-67
2023/03/14 05:57:50;;;;;;;1.65;0.47;;;11.30;99.90;;;;;;5057333;28;20029;-67
2023/03/14 06:00:17;;;;;;;4.90;0.75;;;11.30;99.90;;;;;;5056532;28;20028;-67
2023/03/14 06:02:42;;;;;;;2.05;0.47;;;11.30;99.90;;;;;;5056554;28;20032;-68
2023/03/14 06:05:08;;;;;;;4.55;0.80;;;11.40;99.90;;;;;;5056441;28;20033;-67
2023/03/14 06:07:33;;;;;;;1.05;0.60;;;11.40;99.90;;;;;;5056523;28;20028;-67
2023/03/14 06:09:59;;;;;;;2.78;0.70;;;11.40;99.90;;;;;;5056241;28;20032;-67
2023/03/14 06:12:24;;;;;;;0.50;0.50;;;11.40;99.90;;;;;;5056188;28;20028;-67
2023/03/14 06:14:50;;;;;;;4.38;0.68;;;11.40;99.90;;;;;;5056969;28;20020;-67
2023/03/14 06:17:16;;;;;;;2.30;0.68;;;11.30;99.90;;;;;;5056196;28;20021;-67
2023/03/14 06:19:41;;;;;;;4.28;0.88;;;11.30;99.90;;;;;;5056108;28;20049;-67
2023/03/14 06:22:07;;;;;;;1.77;0.47;;;11.40;99.90;;;;;;5056000;28;20025;-67
2023/03/14 06:24:32;;;;;;;1.48;0.60;;;11.40;99.90;;;;;;5056476;28;20033;-68
2023/03/14 06:26:58;;;;;;;0.75;0.50;;;11.40;99.90;;;;;;5056084;28;20021;-68
2023/03/14 06:29:23;;;;;;;5.85;0.60;;;11.50;99.90;;;;;;5056773;28;20025;-68
2023/03/14 06:31:49;;;;;;;1.50;0.60;;;11.40;99.90;;;;;;5056020;28;20020;-68
2023/03/14 06:34:14;;;;;;;1.60;0.40;;;11.40;99.90;;;;;;5056885;28;20033;-68
2023/03/14 06:36:40;;;;;;;1.83;0.50;;;11.40;99.90;;;;;;5060263;28;20032;-68
2023/03/14 06:39:05;;;;;;;0.35;0.35;;;11.40;99.90;;;;;;5060396;28;20028;-68
2023/03/14 06:41:32;;;;;;;1.52;0.55;;;11.30;99.90;;;;;;5059915;28;20194;-68
2023/03/14 06:43:58;;;;;;;0.93;0.40;;;11.40;99.90;;;;;;5060064;28;20115;-68
2023/03/14 06:46:23;;;;;;;1.42;0.50;;;11.30;99.90;;;;;;5060577;28;20064;-68
2023/03/14 06:48:49;;;;;;;3.05;0.70;;;11.20;99.90;;;;;;5059805;28;20023;-68
2023/03/14 06:51:14;;;;;;;0.75;0.40;;;11.20;99.90;;;;;;5060641;28;20025;-68
2023/03/14 06:53:40;;;;;;;0.98;0.22;;;11.20;99.90;;;;;;5060817;28;20025;-69
2023/03/14 06:56:06;;;;;;;2.00;0.50;;;11.20;99.90;;;;;;5059706;28;20051;-70
2023/03/14 06:58:31;;;;;;;2.05;0.45;;;11.20;99.90;;;;;;5060526;28;20060;-69
2023/03/14 07:00:58;;;;;;;0.68;0.30;;;11.20;99.90;;;;;;5059804;28;20021;-69
2023/03/14 07:03:23;;;;;;;1.23;0.40;;;11.30;99.90;;;;;;5059838;28;20025;-69
2023/03/14 07:05:49;;;;;;;4.20;0.43;;;11.30;99.90;;;;;;5059699;28;20033;-69
2023/03/14 07:08:14;;;;;;;0.75;0.50;;;11.30;99.90;;;;;;5060695;28;20056;-69
2023/03/14 07:10:40;;;;;;;1.08;0.40;;;11.30;99.90;;;;;;5059569;28;20025;-69
2023/03/14 07:13:05;;;;;;;0.90;0.40;;;11.30;99.90;;;;;;5059585;28;20017;-69
2023/03/14 07:15:31;;;;;;;3.20;0.52;;;11.30;99.90;;;;;;5059817;28;20033;-69
2023/03/14 07:17:56;;;;;;;1.35;0.43;;;11.20;99.90;;;;;;5059288;28;20021;-69
2023/03/14 07:20:23;;;;;;;0.40;0.30;;;11.30;99.90;;;;;;5059693;28;20025;-68
2023/03/14 07:22:49;;;;;;;1.77;0.20;;;11.30;99.90;;;;;;5060141;28;20017;-68
2023/03/14 07:25:15;;;;;;;0.65;0.20;;;11.20;99.90;;;;;;5060183;28;20064;-68
2023/03/14 07:27:43;;;;;;;2.85;0.28;;;11.20;99.90;;;;;;5059269;28;20078;-68
2023/03/14 07:30:09;;;;;;;0.20;0.20;;;11.30;99.90;;;;;;5059856;28;20052;-69
2023/03/14 07:32:35;;;;;;;1.30;0.40;;;11.30;99.90;;;;;;5059518;28;20017;-68
2023/03/14 07:35:00;;;;;;;0.30;0.20;;;11.30;99.90;;;;;;5059024;28;20032;-68
2023/03/14 07:37:26;;;;;;;0.88;0.20;;;11.40;99.90;;;;;;5059060;28;20047;-67
2023/03/14 07:39:51;;;;;;;0.90;0.40;;;11.40;99.90;;;;;;5059822;28;20075;-68
2023/03/14 07:42:17;;;;;;;1.02;0.20;;;11.40;99.90;;;;;;5058886;28;20021;-68
2023/03/14 07:44:42;;;;;;;1.83;0.28;;;11.30;99.90;;;;;;5058716;28;20025;-68
2023/03/14 07:47:08;;;;;;;0.55;0.30;;;11.30;99.90;;;;;;5058480;28;20112;-68
2023/03/14 07:49:33;;;;;;;1.45;0.30;;;11.40;99.90;;;;;;5060158;28;20077;-67
2023/03/14 07:51:59;;;;;;;2.85;0.30;;;11.50;99.90;;;;;;5059100;28;20021;-68
2023/03/14 07:54:24;;;;;;;0.70;0.30;;;11.50;99.90;;;;;;5058755;28;20071;-68
2023/03/14 07:56:51;;;;;;;1.65;0.25;;;11.60;99.90;;;;;;5059354;28;20029;-67
2023/03/14 07:59:17;;;;;;;0.82;0.20;;;11.50;99.90;;;;;;5058741;28;20060;-67
2023/03/14 08:01:43;;;;;;;0.40;0.38;;;11.40;99.90;;;;;;5059661;28;20021;-67
2023/03/14 08:04:09;;;;;;;0.20;0.20;;;11.40;99.90;;;;;;5058508;28;20029;-67
2023/03/14 08:06:35;;;;;;;0.30;0.20;;;11.40;99.90;;;;;;5059323;28;20109;-67
2023/03/14 08:09:01;;;;;;;0.47;0.40;;;11.40;99.90;;;;;;5058394;28;20032;-67
2023/03/14 08:11:27;;;;;;;0.40;0.30;;;11.40;99.90;;;;;;5058634;28;20021;-67
2023/03/14 08:13:52;;;;;;;1.27;0.40;;;11.40;99.90;;;;;;5058585;28;20060;-68
2023/03/14 08:16:18;;;;;;;1.65;0.40;;;11.40;99.90;;;;;;5058262;28;20025;-68
2023/03/14 08:18:45;;;;;;;0.20;0.20;;;11.50;99.90;;;;;;5058418;28;20032;-68
2023/03/14 08:21:13;;;;;;;2.25;0.22;;;11.50;99.90;;;;;;5058107;28;20028;-68
2023/03/14 08:23:38;;;;;;;2.80;0.30;;;11.50;99.90;;;;;;5058702;28;20025;-68
2023/03/14 08:26:04;;;;;;;1.25;0.40;;;11.60;99.90;;;;;;5059023;28;20021;-68
2023/03/14 08:28:32;;;;;;;1.75;0.20;;;11.60;99.90;;;;;;5058380;28;20021;-68
2023/03/14 08:30:58;;;;;;;0.25;0.20;;;11.70;99.90;;;;;;5058301;28;20021;-68
2023/03/14 08:33:24;;;;;;;0.55;0.20;;;11.70;99.90;;;;;;5058285;28;20159;-67
2023/03/14 08:35:53;;;;;;;0.28;0.20;;;11.60;99.90;;;;;;5058982;28;20021;-67
2023/03/14 08:38:18;;;;;;;1.90;0.20;;;11.60;99.90;;;;;;5058737;28;20024;-67
2023/03/14 08:40:44;;;;;;;1.65;0.30;;;11.60;99.90;;;;;;5057851;28;20115;-67
2023/03/14 08:43:09;;;;;;;0.63;0.28;;;11.70;99.90;;;;;;5058779;28;20025;-67
2023/03/14 08:45:35;;;;;;;1.75;0.20;;;11.80;99.90;;;;;;5058275;28;20025;-68
2023/03/14 08:48:00;;;;;;;0.47;0.30;;;11.70;99.90;;;;;;5058277;28;20017;-68
2023/03/14 08:50:26;;;;;;;0.70;0.68;;;11.80;99.90;;;;;;5057776;28;20021;-67
2023/03/14 08:52:52;;;;;;;1.85;0.25;;;11.90;99.90;;;;;;5058700;28;20021;-68
2023/03/14 08:55:17;;;;;;;3.22;0.55;;;11.90;99.90;;;;;;5057566;28;20056;-68
2023/03/14 08:57:43;;;;;;;0.50;0.40;;;12.00;99.90;;;;;;5057242;28;20055;-67
2023/03/14 09:00:10;;;;;;;0.20;0.20;;;12.10;99.90;;;;;;5057495;28;20025;-67
2023/03/14 09:02:36;;;;;;;0.63;0.43;;;12.10;99.90;;;;;;5058443;28;20051;-67
2023/03/14 09:05:02;;;;;;;3.10;0.22;;;12.10;99.90;;;;;;5058234;28;20029;-67
2023/03/14 09:07:27;;;;;;;0.68;0.20;;;12.10;99.90;;;;;;5057348;28;20025;-67
2023/03/14 09:09:53;;;;;;;0.20;0.20;;;12.10;99.90;;;;;;5058385;28;20033;-67
2023/03/14 09:12:18;;;;;;;1.92;0.25;;;12.10;99.90;;;;;;5058333;28;20096;-68
2023/03/14 09:14:44;;;;;;;1.35;0.30;;;12.20;99.90;;;;;;5057367;28;20031;-67
2023/03/14 09:17:09;;;;;;;0.55;0.10;;;12.10;99.90;;;;;;5057401;28;20021;-67
2023/03/14 09:19:35;;;;;;;0.30;0.30;;;11.90;99.90;;;;;;5057374;28;20021;-67
2023/03/14 09:22:01;;;;;;;3.40;0.40;;;11.80;99.90;;;;;;5057824;28;20060;-68
2023/03/14 09:24:26;;;;;;;0.60;0.30;;;11.80;99.90;;;;;;5056967;28;20021;-68
2023/03/14 09:26:52;;;;;;;1.45;0.20;;;11.90;99.90;;;;;;5057812;28;20033;-67
2023/03/14 09:29:18;;;;;;;1.92;0.45;;;12.00;99.90;;;;;;5057774;28;20125;-67
2023/03/14 09:31:43;;;;;;;0.20;0.20;;;12.00;99.90;;;;;;5057724;28;20025;-67
2023/03/14 09:34:09;;;;;;;0.70;0.50;;;12.10;99.90;;;;;;5057645;28;20036;-67
2023/03/14 09:36:34;;;;;;;0.47;0.20;;;12.20;99.90;;;;;;5057873;28;20048;-68
2023/03/14 09:39:00;;;;;;;1.27;0.20;;;12.20;99.90;;;;;;5056824;28;20070;-67
2023/03/14 09:41:32;;;;;;;0.17;0.10;;;12.30;99.90;;;;;;5057561;28;20040;-67
2023/03/14 09:44:08;;;;;;;0.50;0.20;;;12.40;99.90;;;;;;5056912;28;20025;-67
2023/03/14 09:46:36;;;;;;;0.80;0.20;;;12.40;99.90;;;;;;5056520;28;20119;-67
2023/03/14 09:49:08;;;;;;;0.10;0.10;;;12.30;99.90;;;;;;5057566;28;20049;-68
2023/03/14 09:51:34;;;;;;;0.80;0.25;;;12.30;99.90;;;;;;5057429;28;20070;-67
2023/03/14 09:54:01;;;;;;;0.50;0.20;;;12.20;99.90;;;;;;5056362;28;20029;-67
2023/03/14 09:56:31;;;;;;;1.20;0.28;;;12.20;99.90;;;;;;5056187;28;20021;-68
2023/03/14 09:58:59;;;;;;;0.63;0.30;;;12.20;99.90;;;;;;5057210;28;20029;-68
2023/03/14 10:01:31;;;;;;;0.08;0.08;;;12.10;99.90;;;;;;5057253;28;20025;-68
2023/03/14 10:04:01;;;;;;;0.63;0.20;;;12.10;99.90;;;;;;5056652;28;20120;-68
2023/03/14 10:06:29;;;;;;;0.20;0.15;;;12.20;99.90;;;;;;5056039;28;20043;-68
2023/03/14 10:08:56;;;;;;;1.33;0.10;;;12.20;99.90;;;;;;5056387;28;20032;-68
2023/03/14 10:11:22;;;;;;;0.45;0.30;;;12.30;99.90;;;;;;5056252;28;20119;-68
2023/03/14 10:14:01;;;;;;;0.98;0.30;;;12.30;99.90;;;;;;5056007;28;20064;-68
2023/03/14 10:16:33;;;;;;;0.52;0.38;;;12.40;99.90;;;;;;5056776;28;20092;-68
2023/03/14 10:19:17;;;;;;;0.10;0.10;;;12.40;99.90;;;;;;5057055;28;20039;-68
2023/03/14 10:21:49;;;;;;;0.77;0.15;;;12.40;99.90;;;;;;5056224;28;20096;-69
2023/03/14 10:24:28;;;;;;;0.30;0.20;;;12.30;99.90;;;;;;5056107;28;20040;-68
2023/03/14 10:26:58;;;;;;;1.70;0.22;;;12.30;99.90;;;;;;5056089;28;20021;-69
2023/03/14 10:29:23;;;;;;;0.20;0.20;;;12.40;99.90;;;;;;5056433;28;20021;-68
2023/03/14 10:31:55;;;;;;;1.00;0.38;;;12.30;99.90;;;;;;5055972;28;20031;-68
2023/03/14 10:34:30;;;;;;;0.10;0.10;;;12.20;99.90;;;;;;5056465;28;20111;-68
2023/03/14 10:36:59;;;;;;;0.22;0.00;;;12.20;99.90;;;;;;5057180;28;20033;-68
2023/03/14 10:39:42;;;;;;;0.20;0.20;;;12.20;99.90;;;;;;5056074;28;20021;-68
2023/03/14 10:42:20;;;;;;;0.28;0.20;;;12.30;99.90;;;;;;5055925;28;20029;-68
2023/03/14 10:44:49;;;;;;;0.50;0.20;;;12.40;99.90;;;;;;5055704;28;20025;-68
2023/03/14 10:47:23;;;;;;;1.67;1.08;;;12.40;99.90;;;;;;5056154;28;20017;-68
2023/03/14 10:49:49;;;;;;;0.93;0.30;;;12.40;99.90;;;;;;5055795;28;20047;-69
2023/03/14 10:52:24;;;;;;;0.63;0.20;;;12.40;99.90;;;;;;5056553;28;20024;-68
2023/03/14 10:55:08;;;;;;;0.88;0.38;;;12.40;99.90;;;;;;5055646;28;20021;-68
2023/03/14 10:57:39;;;;;;;0.25;0.20;;;12.40;99.90;;;;;;5056369;28;20125;-68
2023/03/14 11:00:13;;;;;;;0.60;0.40;;;12.40;99.90;;;;;;5055648;28;20029;-68
2023/03/14 11:03:03;;;;;;;0.30;0.20;;;12.40;99.90;;;;;;5056854;28;20031;-68
2023/03/14 11:05:46;;;;;;;0.52;0.32;;;12.40;99.90;;;;;;5055803;28;20040;-68
2023/03/14 11:08:24;;;;;;;0.50;0.40;;;12.40;99.90;;;;;;5056798;28;20029;-68
2023/03/14 11:11:07;;;;;;;2.85;0.20;;;12.40;99.90;;;;;;5056921;28;20022;-68
2023/03/14 11:14:16;;;;;;;0.30;0.30;;;12.30;99.90;;;;;;5055514;28;20111;-68
2023/03/14 11:17:02;;;;;;;0.47;0.35;;;12.20;99.90;;;;;;5036075;28;20076;-68
2023/03/14 11:19:48;;;;;;;0.75;0.35;;;12.30;99.90;;;;;;5056485;28;20023;-68
2023/03/14 11:22:37;;;;;;;1.17;0.43;;;12.50;99.90;;;;;;5059152;28;20052;-68
2023/03/14 11:25:24;;;;;;;0.70;0.20;;;12.50;99.90;;;;;;5059150;28;20025;-68
2023/03/14 11:28:17;;;;;;;1.58;0.35;;;12.40;99.90;;;;;;5059340;28;20063;-68
2023/03/14 11:30:53;;;;;;;0.50;0.50;;;12.40;99.90;;;;;;5060071;28;20017;-68
2023/03/14 11:33:21;;;;;;;4.63;0.50;;;12.30;99.90;;;;;;5059173;28;20029;-68
2023/03/14 11:36:06;;;;;;;0.47;0.30;;;12.30;99.90;;;;;;5059083;28;20017;-68
2023/03/14 11:38:40;;;;;;;0.95;0.40;;;12.20;99.90;;;;;;5060008;28;20033;-68
2023/03/14 11:41:14;;;;;;;1.15;0.50;;;12.20;99.90;;;;;;5058989;28;20029;-68
2023/03/14 11:43:42;;;;;;;0.60;0.28;;;12.10;99.90;;;;;;5058875;28;20052;-68
2023/03/14 11:46:38;;;;;;;3.10;0.43;;;11.90;99.90;;;;;;5059477;28;20049;-68
2023/03/14 11:49:24;;;;;;;1.75;0.30;;;11.60;99.90;;;;;;5057369;28;20040;-68
2023/03/14 11:51:58;;;;;;;0.55;0.30;;;11.00;99.90;;;;;;5060088;28;20074;-68
2023/03/14 11:54:34;;;;;;;0.63;0.22;;;10.90;99.90;;;;;;5059328;28;20032;-68
2023/03/14 11:57:03;;;;;;;0.73;0.20;;;10.80;99.90;;;;;;5059837;28;20079;-68
2023/03/14 11:59:36;;;;;;;1.00;0.10;;;10.80;99.90;;;;;;5058601;28;20029;-68
2023/03/14 12:02:08;;;;;;;0.45;0.20;;;10.80;99.90;;;;;;5059860;28;20040;-68
2023/03/14 12:05:08;;;;;;;0.00;0.00;;;10.70;99.90;;;;;;5059131;28;20029;-68
2023/03/14 12:08:06;;;;;;;0.10;0.10;;;10.70;99.90;;;;;;5059417;28;20022;-68
2023/03/14 12:10:39;;;;;;;1.88;0.10;;;10.60;99.90;;;;;;5058534;28;20028;-68
2023/03/14 12:13:08;;;;;;;0.10;0.10;;;10.60;99.90;;;;;;5059721;28;20024;-68
2023/03/14 12:15:39;;;;;;;0.43;0.15;;;10.60;99.90;;;;;;5058204;28;20031;-68
2023/03/14 12:18:34;;;;;;;0.15;0.15;;;10.50;99.90;;;;;;5059278;28;20025;-68
2023/03/14 12:21:02;;;;;;;0.55;0.20;;;10.50;99.90;;;;;;5058262;28;20056;-68
2023/03/14 12:23:36;;;;;;;1.70;0.20;;;10.40;99.90;;;;;;5058839;28;20094;-68
2023/03/14 12:26:11;;;;;;;3.35;0.30;;;10.30;99.90;;;;;;5058667;28;20106;-68
2023/03/14 12:28:42;;;;;;;0.17;0.17;;;10.20;99.90;;;;;;5058276;28;20059;-68
2023/03/14 12:31:32;;;;;;;0.20;0.20;;;10.20;99.90;;;;;;5059534;28;20044;-68
2023/03/14 12:34:05;;;;;;;0.45;0.38;;;10.30;99.90;;;;;;5056639;28;20071;-68
2023/03/14 12:36:54;;;;;;;0.73;0.25;;;10.30;99.90;;;;;;5057850;28;20029;-68
2023/03/14 12:39:43;;;;;;;1.60;0.17;;;10.30;99.90;;;;;;5058909;28;20075;-68
2023/03/14 12:42:20;;;;;;;0.47;0.32;;;10.30;99.90;;;;;;5059250;28;20021;-68
2023/03/14 12:44:50;;;;;;;0.95;0.20;;;10.20;99.90;;;;;;5057772;28;20048;-68
2023/03/14 12:47:19;;;;;;;2.03;0.30;;;10.20;99.90;;;;;;5058519;28;20025;-68
2023/03/14 12:49:49;;;;;;;0.73;0.25;;;10.10;99.90;;;;;;5057691;28;20021;-68
2023/03/14 12:52:17;;;;;;;0.40;0.30;;;10.00;99.90;;;;;;5058617;28;20029;-68
2023/03/14 12:55:09;;;;;;;1.98;0.40;;;10.00;99.90;;;;;;5057389;28;20110;-68
2023/03/14 12:57:45;;;;;;;1.30;0.60;;;10.10;99.90;;;;;;5058667;28;20029;-68